createdAt,value
2023-01-05T00:01:04.009Z,5.00
2023-01-05T00:03:30.597Z,5.13
2023-01-05T00:06:00.742Z,5.18
2023-01-05T00:08:30.269Z,6.18
2023-01-05T00:11:28.522Z,5.68
2023-01-05T00:14:13.663Z,5.65
2023-01-05T00:16:58.675Z,6.97
2023-01-05T00:19:43.980Z,5.65
2023-01-05T00:22:31.799Z,5.95
2023-01-05T00:25:09.224Z,5.53
2023-01-05T00:27:38.588Z,5.80
2023-01-05T00:30:06.028Z,5.93
2023-01-05T00:32:32.848Z,5.57
2023-01-05T00:34:59.846Z,5.50
2023-01-05T00:37:28.122Z,5.97
2023-01-05T00:39:54.755Z,5.53
2023-01-05T00:42:21.233Z,5.50
2023-01-05T00:44:47.646Z,5.30
2023-01-05T00:47:14.250Z,6.07
2023-01-05T00:49:40.725Z,5.45
2023-01-05T00:52:07.509Z,5.15
2023-01-05T00:54:34.113Z,5.25
2023-01-05T00:57:00.924Z,5.53
2023-01-05T00:59:27.411Z,5.80
2023-01-05T01:01:54.754Z,5.95
2023-01-05T01:04:21.680Z,5.63
2023-01-05T01:06:48.316Z,5.80
2023-01-05T01:09:14.926Z,6.72
2023-01-05T01:11:41.427Z,5.38
2023-01-05T01:14:08.482Z,5.97
2023-01-05T01:16:35.064Z,5.72
2023-01-05T01:19:05.355Z,6.13
2023-01-05T01:21:32.092Z,5.53
2023-01-05T01:23:58.559Z,5.22
2023-01-05T01:26:24.971Z,5.38
2023-01-05T01:28:51.580Z,6.57
2023-01-05T01:31:18.163Z,5.63
2023-01-05T01:33:44.718Z,5.80
2023-01-05T01:36:11.183Z,5.82
2023-01-05T01:38:37.927Z,6.60
2023-01-05T01:41:04.561Z,5.22
2023-01-05T01:43:42.636Z,5.68
2023-01-05T01:46:09.645Z,6.03
2023-01-05T01:48:36.575Z,5.40
2023-01-05T01:51:08.446Z,5.85
2023-01-05T01:53:37.373Z,6.10
2023-01-05T01:56:05.225Z,5.70
2023-01-05T01:58:32.458Z,6.32
2023-01-05T02:01:02.985Z,6.55
2023-01-05T02:03:30.510Z,5.65
2023-01-05T02:05:57.482Z,6.30
2023-01-05T02:08:31.513Z,5.53
2023-01-05T02:11:16.923Z,6.20
2023-01-05T02:13:58.693Z,5.43
2023-01-05T02:16:38.094Z,5.80
2023-01-05T02:19:13.940Z,5.70
2023-01-05T02:21:49.608Z,5.88
2023-01-05T02:24:16.105Z,5.22
2023-01-05T02:27:08.829Z,6.30
2023-01-05T02:29:42.898Z,5.43
2023-01-05T02:32:13.088Z,5.90
2023-01-05T02:35:02.615Z,5.97
2023-01-05T02:37:36.157Z,5.65
2023-01-05T02:40:08.416Z,5.93
2023-01-05T02:42:38.265Z,5.43
2023-01-05T02:45:05.297Z,5.93
2023-01-05T02:47:39.063Z,6.43
2023-01-05T02:50:12.689Z,5.88
2023-01-05T02:52:48.273Z,5.85
2023-01-05T02:55:18.928Z,6.28
2023-01-05T02:57:51.644Z,6.13
2023-01-05T03:00:21.593Z,6.05
2023-01-05T03:02:51.107Z,6.60
2023-01-05T03:05:21.812Z,6.55
2023-01-05T03:07:50.534Z,6.15
2023-01-05T03:10:35.666Z,5.85
2023-01-05T03:13:24.705Z,6.50
2023-01-05T03:15:58.703Z,6.35
2023-01-05T03:18:26.332Z,6.43
2023-01-05T03:20:53.841Z,6.45
2023-01-05T03:23:40.055Z,6.57
2023-01-05T03:26:26.225Z,6.70
2023-01-05T03:29:19.252Z,6.28
2023-01-05T03:32:07.717Z,5.53
2023-01-05T03:35:07.972Z,5.90
2023-01-05T03:37:36.529Z,7.07
2023-01-05T03:40:04.894Z,6.55
2023-01-05T03:42:34.975Z,6.85
2023-01-05T03:45:02.485Z,6.95
2023-01-05T03:47:28.939Z,7.00
2023-01-05T03:49:55.823Z,6.13
2023-01-05T03:52:22.476Z,7.30
2023-01-05T03:54:49.640Z,6.70
2023-01-05T03:57:16.068Z,6.70
2023-01-05T03:59:43.385Z,6.40
2023-01-05T04:02:10.066Z,6.55
2023-01-05T04:04:36.618Z,5.93
2023-01-05T04:07:07.319Z,6.55
2023-01-05T04:09:34.810Z,6.80
2023-01-05T04:12:01.834Z,6.32
2023-01-05T04:14:32.760Z,7.35
2023-01-05T04:16:59.853Z,7.38
2023-01-05T04:19:26.947Z,7.70
2023-01-05T04:21:54.840Z,7.22
2023-01-05T04:24:23.028Z,7.70
2023-01-05T04:26:49.681Z,7.88
2023-01-05T04:29:18.774Z,8.60
2023-01-05T04:31:48.591Z,7.63
2023-01-05T04:34:15.009Z,8.77
2023-01-05T04:36:43.130Z,8.25
2023-01-05T04:39:14.601Z,7.40
2023-01-05T04:41:41.860Z,7.72
2023-01-05T04:44:08.355Z,7.75
2023-01-05T04:46:35.233Z,7.80
2023-01-05T04:49:02.933Z,7.55
2023-01-05T04:51:29.824Z,8.07
2023-01-05T04:53:56.416Z,7.47
2023-01-05T04:56:24.430Z,8.02
2023-01-05T04:58:50.904Z,7.47
2023-01-05T05:01:18.513Z,8.55
2023-01-05T05:03:49.897Z,8.23
2023-01-05T05:06:19.898Z,9.00
2023-01-05T05:08:48.521Z,8.00
2023-01-05T05:11:15.203Z,8.23
2023-01-05T05:13:45.404Z,9.07
2023-01-05T05:16:13.095Z,9.73
2023-01-05T05:18:40.671Z,8.18
2023-01-05T05:21:10.293Z,8.70
2023-01-05T05:23:38.468Z,8.90
2023-01-05T05:26:05.274Z,9.57
2023-01-05T05:28:31.841Z,8.98
2023-01-05T05:30:58.418Z,9.48
2023-01-05T05:33:25.480Z,8.98
2023-01-05T05:35:51.964Z,10.02
2023-01-05T05:38:18.436Z,9.27
2023-01-05T05:40:44.897Z,9.07
2023-01-05T05:43:11.296Z,9.10
2023-01-05T05:45:37.714Z,9.77
2023-01-05T05:48:04.245Z,10.38
2023-01-05T05:50:30.666Z,10.25
2023-01-05T05:53:04.932Z,10.30
2023-01-05T05:55:31.431Z,9.55
2023-01-05T05:57:57.854Z,10.80
2023-01-05T06:00:24.444Z,9.18
2023-01-05T06:02:51.036Z,10.63
2023-01-05T06:05:17.582Z,10.70
2023-01-05T06:07:43.987Z,10.68
2023-01-05T06:10:13.100Z,10.88
2023-01-05T06:12:39.679Z,12.63
2023-01-05T06:15:06.436Z,11.38
2023-01-05T06:17:32.827Z,10.82
2023-01-05T06:19:59.247Z,10.85
2023-01-05T06:22:25.682Z,10.50
2023-01-05T06:24:52.128Z,10.63
2023-01-05T06:27:18.570Z,11.38
2023-01-05T06:29:44.983Z,10.65
2023-01-05T06:32:11.533Z,11.25
2023-01-05T06:34:37.990Z,10.98
2023-01-05T06:37:06.482Z,12.63
2023-01-05T06:39:33.010Z,12.18
2023-01-05T06:41:59.461Z,12.73
2023-01-05T06:44:25.880Z,11.68
2023-01-05T06:46:52.276Z,12.63
2023-01-05T06:49:18.678Z,12.02
2023-01-05T06:51:45.097Z,12.30
2023-01-05T06:54:11.541Z,10.63
2023-01-05T06:56:37.989Z,10.68
2023-01-05T06:59:04.655Z,12.07
2023-01-05T07:01:31.352Z,11.32
2023-01-05T07:03:58.167Z,11.55
2023-01-05T07:06:24.670Z,12.10
2023-01-05T07:08:51.076Z,11.98
2023-01-05T07:11:17.519Z,11.45
2023-01-05T07:13:47.488Z,12.13
2023-01-05T07:16:13.951Z,12.45
2023-01-05T07:18:40.545Z,12.65
2023-01-05T07:21:07.271Z,11.88
2023-01-05T07:23:37.607Z,13.23
2023-01-05T07:26:04.791Z,11.63
2023-01-05T07:28:31.207Z,12.70
2023-01-05T07:30:57.615Z,13.52
2023-01-05T07:33:24.207Z,13.13
2023-01-05T07:35:50.636Z,12.98
2023-01-05T07:38:17.417Z,11.88
2023-01-05T07:40:43.880Z,12.82
2023-01-05T07:43:10.463Z,13.50
2023-01-05T07:45:36.931Z,14.45
2023-01-05T07:48:03.516Z,13.63
2023-01-05T07:50:30.061Z,13.98
2023-01-05T07:52:58.244Z,14.18
2023-01-05T07:55:24.648Z,12.70
2023-01-05T07:57:51.081Z,13.32
2023-01-05T08:00:17.607Z,13.35
2023-01-05T08:02:44.307Z,13.00
2023-01-05T08:05:10.923Z,11.77
2023-01-05T08:07:37.577Z,12.95
2023-01-05T08:10:22.691Z,12.98
2023-01-05T08:13:27.547Z,12.52
2023-01-05T08:15:54.594Z,11.98
2023-01-05T08:18:21.898Z,12.57
2023-01-05T08:20:58.569Z,12.10
2023-01-05T08:23:26.843Z,12.35
2023-01-05T08:25:54.489Z,12.88
2023-01-05T08:28:29.870Z,12.18
2023-01-05T08:31:08.329Z,11.55
2023-01-05T08:33:34.793Z,11.68
2023-01-05T08:36:01.263Z,10.85
2023-01-05T08:38:27.686Z,11.15
2023-01-05T08:40:57.431Z,10.18
2023-01-05T08:43:23.853Z,11.68
2023-01-05T08:45:50.411Z,10.40
2023-01-05T08:48:16.883Z,11.35
2023-01-05T08:50:48.124Z,10.30
2023-01-05T08:53:14.661Z,11.50
2023-01-05T08:55:41.237Z,11.30
2023-01-05T08:58:07.622Z,11.57
2023-01-05T09:00:37.305Z,11.77
2023-01-05T09:03:05.017Z,12.10
2023-01-05T09:05:38.504Z,11.80
2023-01-05T09:08:10.229Z,11.48
2023-01-05T09:10:37.655Z,11.77
2023-01-05T09:13:08.395Z,10.77
2023-01-05T09:15:35.773Z,10.70
2023-01-05T09:18:03.343Z,10.18
2023-01-05T09:20:39.540Z,11.32
2023-01-05T09:23:06.785Z,11.02
2023-01-05T09:25:33.232Z,10.43
2023-01-05T09:27:59.674Z,11.90
2023-01-05T09:30:26.137Z,10.07
2023-01-05T09:32:52.597Z,9.95
2023-01-05T09:35:19.197Z,10.80
2023-01-05T09:37:45.750Z,10.30
2023-01-05T09:40:14.612Z,10.23
2023-01-05T09:42:43.608Z,10.00
2023-01-05T09:45:11.800Z,10.95
2023-01-05T09:47:40.008Z,10.23
2023-01-05T09:50:07.313Z,10.75
2023-01-05T09:52:38.072Z,10.73
2023-01-05T09:55:17.078Z,9.75
2023-01-05T09:57:56.749Z,9.80
2023-01-05T10:00:25.454Z,11.40
2023-01-05T10:03:36.596Z,10.80
2023-01-05T10:06:03.294Z,9.90
2023-01-05T10:08:38.078Z,9.95
2023-01-05T10:11:29.534Z,10.98
2023-01-05T10:14:02.043Z,10.85
2023-01-05T10:16:29.849Z,10.18
2023-01-05T10:18:56.732Z,9.82
2023-01-05T10:21:48.346Z,9.70
2023-01-05T10:24:21.942Z,10.25
2023-01-05T10:29:53.780Z,9.68
2023-01-05T10:32:31.604Z,9.90
2023-01-05T10:35:03.033Z,10.02
2023-01-05T10:37:49.052Z,9.82
2023-01-05T10:40:15.904Z,9.77
2023-01-05T10:42:55.991Z,10.57
2023-01-05T10:45:23.383Z,9.90
2023-01-05T10:47:50.228Z,9.50
2023-01-05T10:50:39.181Z,8.75
2023-01-05T10:53:15.051Z,9.68
2023-01-05T10:55:48.740Z,9.70
2023-01-05T10:58:32.748Z,9.32
2023-01-05T11:01:15.419Z,9.02
2023-01-05T11:04:25.542Z,9.15
2023-01-05T11:06:40.691Z,9.57
2023-01-05T11:09:22.115Z,9.85
2023-01-05T11:11:59.328Z,10.25
2023-01-05T11:14:27.141Z,9.75
2023-01-05T11:16:55.161Z,9.70
2023-01-05T11:19:26.107Z,10.05
2023-01-05T11:21:58.129Z,9.65
2023-01-05T11:24:27.980Z,10.65
2023-01-05T11:26:58.835Z,9.57
2023-01-05T11:29:25.566Z,9.80
2023-01-05T11:31:53.780Z,10.43
2023-01-05T11:34:33.261Z,9.93
2023-01-05T11:37:04.094Z,10.68
2023-01-05T11:39:38.470Z,9.10
2023-01-05T11:42:07.656Z,8.90
2023-01-05T11:44:34.654Z,10.07
2023-01-05T11:47:01.282Z,9.23
2023-01-05T11:49:27.931Z,8.90
2023-01-05T11:51:54.574Z,9.43
2023-01-05T11:54:34.889Z,8.55
2023-01-05T11:57:22.405Z,8.25
2023-01-05T11:59:51.012Z,7.80
2023-01-05T12:02:39.479Z,8.38
2023-01-05T12:05:18.082Z,8.77
2023-01-05T12:07:49.598Z,8.23
2023-01-05T12:10:19.028Z,9.10
2023-01-05T12:13:14.955Z,7.72
2023-01-05T12:15:57.322Z,9.40
2023-01-05T12:18:50.188Z,8.38
2023-01-05T12:21:22.633Z,8.77
2023-01-05T12:23:52.114Z,8.82
2023-01-05T12:26:21.475Z,8.80
2023-01-05T12:29:30.153Z,9.00
2023-01-05T12:35:01.679Z,8.02
2023-01-05T12:37:40.521Z,9.02
2023-01-05T12:40:14.618Z,8.15
2023-01-05T12:42:57.998Z,7.85
2023-01-05T12:45:36.611Z,7.65
2023-01-05T12:48:05.658Z,8.38
2023-01-05T12:50:34.719Z,8.50
2023-01-05T12:53:17.035Z,7.45
2023-01-05T12:56:03.901Z,7.70
2023-01-05T12:58:35.151Z,7.75
2023-01-05T13:01:04.293Z,7.43
2023-01-05T13:03:33.935Z,7.35
2023-01-05T13:06:02.522Z,7.85
2023-01-05T13:08:36.957Z,8.23
2023-01-05T13:11:18.272Z,8.57
2023-01-05T13:13:48.415Z,7.35
2023-01-05T13:16:20.485Z,8.70
2023-01-05T13:18:52.240Z,7.50
2023-01-05T13:21:20.391Z,7.70
2023-01-05T13:23:58.644Z,6.63
2023-01-05T13:26:25.172Z,6.78
2023-01-05T13:28:53.551Z,7.00
2023-01-05T13:31:36.316Z,6.82
2023-01-05T13:34:27.250Z,6.85
2023-01-05T13:36:59.895Z,6.45
2023-01-05T13:39:44.126Z,7.45
2023-01-05T13:42:25.854Z,7.80
2023-01-05T13:45:11.192Z,7.55
2023-01-05T13:47:45.969Z,7.82
2023-01-05T13:50:23.142Z,7.57
2023-01-05T13:52:55.724Z,6.85
2023-01-05T13:55:26.198Z,8.05
2023-01-05T13:57:55.490Z,7.15
2023-01-05T14:00:35.479Z,7.03
2023-01-05T14:03:08.048Z,6.20
2023-01-05T14:05:54.680Z,7.47
2023-01-05T14:08:27.905Z,7.82
2023-01-05T14:11:14.616Z,6.85
2023-01-05T14:13:48.648Z,6.90
2023-01-05T14:16:33.591Z,6.78
2023-01-05T14:19:06.249Z,6.40
2023-01-05T14:21:51.277Z,7.47
2023-01-05T14:24:37.411Z,6.45
2023-01-05T14:27:03.944Z,6.50
2023-01-05T14:29:48.767Z,6.97
2023-01-05T14:32:29.044Z,7.53
2023-01-05T14:37:37.068Z,8.43
2023-01-05T14:40:22.413Z,7.90
2023-01-05T14:42:49.448Z,7.47
2023-01-05T14:45:20.658Z,7.53
2023-01-05T14:47:48.375Z,7.55
2023-01-05T14:50:38.081Z,8.30
2023-01-05T14:53:04.512Z,8.43
2023-01-05T14:55:39.944Z,10.10
2023-01-05T14:58:35.997Z,8.13
2023-01-05T15:03:47.330Z,8.35
2023-01-05T15:06:24.321Z,8.30
2023-01-05T15:09:09.778Z,8.13
2023-01-05T15:11:42.439Z,8.68
2023-01-05T15:14:35.174Z,7.72
2023-01-05T15:17:14.911Z,9.15
2023-01-05T15:19:44.475Z,8.88
2023-01-05T15:22:36.469Z,8.63
2023-01-05T15:25:10.803Z,8.40
2023-01-05T15:27:42.708Z,9.50
2023-01-05T15:30:14.085Z,9.73
2023-01-05T15:32:42.564Z,7.35
2023-01-05T15:35:09.068Z,8.02
2023-01-05T15:37:39.769Z,8.90
2023-01-05T15:40:09.138Z,8.52
2023-01-05T15:42:40.712Z,9.27
2023-01-05T15:45:28.288Z,10.02
2023-01-05T15:47:56.780Z,8.50
2023-01-05T15:50:25.560Z,9.20
2023-01-05T15:52:54.371Z,8.85
2023-01-05T15:55:21.442Z,7.25
2023-01-05T15:57:55.995Z,8.35
2023-01-05T16:00:24.987Z,8.00
2023-01-05T16:02:51.557Z,7.85
2023-01-05T16:05:22.668Z,7.13
2023-01-05T16:07:54.647Z,8.68
2023-01-05T16:10:28.657Z,8.10
2023-01-05T16:13:21.393Z,7.88
2023-01-05T16:15:52.124Z,8.32
2023-01-05T16:18:21.904Z,6.57
2023-01-05T16:20:50.011Z,7.22
2023-01-05T16:23:30.956Z,7.55
2023-01-05T16:25:58.150Z,7.78
2023-01-05T16:28:25.670Z,7.55
2023-01-05T16:30:53.572Z,7.63
2023-01-05T16:33:20.061Z,8.30
2023-01-05T16:35:47.672Z,7.90
2023-01-05T16:38:14.136Z,7.72
2023-01-05T16:40:46.877Z,8.57
2023-01-05T16:43:22.153Z,9.32
2023-01-05T16:45:50.222Z,8.45
2023-01-05T16:48:38.914Z,8.98
2023-01-05T16:51:06.320Z,8.90
2023-01-05T16:53:34.672Z,9.05
2023-01-05T16:56:01.510Z,9.18
2023-01-05T16:58:31.093Z,8.90
2023-01-05T17:01:12.895Z,10.10
2023-01-05T17:03:39.937Z,8.80
2023-01-05T17:06:06.814Z,8.65
2023-01-05T17:08:36.153Z,9.73
2023-01-05T17:11:03.407Z,8.52
2023-01-05T17:13:35.679Z,9.32
2023-01-05T17:16:03.913Z,8.60
2023-01-05T17:18:31.290Z,9.40
2023-01-05T17:20:58.608Z,7.82
2023-01-05T17:23:24.965Z,8.77
2023-01-05T17:28:22.240Z,7.65
2023-01-05T17:30:48.895Z,8.60
2023-01-05T17:33:15.371Z,9.55
2023-01-05T17:35:42.818Z,9.00
2023-01-05T17:38:10.631Z,8.65
2023-01-05T17:40:37.159Z,8.63
2023-01-05T17:43:03.752Z,7.85
2023-01-05T17:45:30.671Z,8.77
2023-01-05T17:47:57.174Z,9.13
2023-01-05T17:50:26.817Z,10.35
2023-01-05T17:52:53.938Z,10.18
2023-01-05T17:55:20.823Z,9.45
2023-01-05T17:57:47.356Z,9.07
2023-01-05T18:00:15.840Z,10.52
2023-01-05T18:02:43.262Z,10.90
2023-01-05T18:05:10.842Z,10.68
2023-01-05T18:07:37.830Z,10.82
2023-01-05T18:12:32.934Z,11.32
2023-01-05T18:14:59.386Z,10.02
2023-01-05T18:17:25.913Z,11.90
2023-01-05T18:19:52.393Z,11.38
2023-01-05T18:22:18.920Z,12.27
2023-01-05T18:24:45.571Z,12.63
2023-01-05T18:27:12.488Z,13.23
2023-01-05T18:29:39.390Z,14.18
2023-01-05T18:32:06.600Z,11.38
2023-01-05T18:34:33.142Z,12.25
2023-01-05T18:37:05.821Z,10.30
2023-01-05T18:39:37.132Z,11.70
2023-01-05T18:42:03.956Z,10.80
2023-01-05T18:44:30.501Z,11.43
2023-01-05T18:46:56.982Z,11.70
2023-01-05T18:49:23.421Z,11.50
2023-01-05T18:51:51.042Z,12.95
2023-01-05T18:54:18.165Z,12.30
2023-01-05T18:56:44.710Z,13.15
2023-01-05T18:59:11.892Z,11.27
2023-01-05T19:01:43.125Z,11.27
2023-01-05T19:04:13.881Z,11.60
2023-01-05T19:06:40.387Z,11.13
2023-01-05T19:09:08.998Z,11.20
2023-01-05T19:11:36.231Z,11.65
2023-01-05T19:14:03.342Z,13.05
2023-01-05T19:16:30.920Z,12.43
2023-01-05T19:18:58.689Z,12.43
2023-01-05T19:21:25.737Z,12.40
2023-01-05T19:23:56.438Z,13.23
2023-01-05T19:26:23.120Z,11.98
2023-01-05T19:28:50.831Z,14.55
2023-01-05T19:31:18.165Z,13.30
2023-01-05T19:33:44.747Z,13.07
2023-01-05T19:36:12.535Z,12.52
2023-01-05T19:38:39.471Z,13.10
2023-01-05T19:41:06.147Z,13.50
2023-01-05T19:43:32.620Z,12.57
2023-01-05T19:46:00.075Z,13.68
2023-01-05T19:48:26.687Z,13.82
2023-01-05T19:50:57.075Z,13.20
2023-01-05T19:53:25.520Z,14.60
2023-01-05T19:55:52.029Z,15.52
2023-01-05T19:58:29.699Z,14.00
2023-01-05T20:00:57.969Z,13.82
2023-01-05T20:03:24.665Z,12.73
2023-01-05T20:05:51.258Z,13.00
2023-01-05T20:08:17.716Z,13.63
2023-01-05T20:10:44.133Z,14.02
2023-01-05T20:13:10.581Z,17.00
2023-01-05T20:15:37.079Z,14.70
2023-01-05T20:18:03.699Z,14.40
2023-01-05T20:20:30.293Z,12.48
2023-01-05T20:22:56.787Z,13.27
2023-01-05T20:25:23.322Z,14.07
2023-01-05T20:27:49.732Z,12.90
2023-01-05T20:30:16.275Z,14.40
2023-01-05T20:32:42.750Z,14.90
2023-01-05T20:35:11.684Z,14.57
2023-01-05T20:37:38.341Z,14.73
2023-01-05T20:40:05.077Z,13.73
2023-01-05T20:42:31.631Z,16.10
2023-01-05T20:44:58.209Z,15.52
2023-01-05T20:47:24.609Z,16.70
2023-01-05T20:49:51.071Z,20.02
2023-01-05T20:52:17.770Z,22.88
2023-01-05T20:54:44.566Z,17.88
2023-01-05T20:57:11.152Z,17.63
2023-01-05T20:59:41.288Z,15.98
2023-01-05T21:02:22.353Z,13.10
2023-01-05T21:04:50.090Z,14.48
2023-01-05T21:07:16.509Z,14.27
2023-01-05T21:09:43.220Z,15.48
2023-01-05T21:12:09.746Z,14.93
2023-01-05T21:14:36.239Z,12.70
2023-01-05T21:17:02.733Z,16.17
2023-01-05T21:19:29.190Z,15.23
2023-01-05T21:21:56.585Z,27.60
2023-01-05T21:24:23.355Z,20.45
2023-01-05T21:26:50.267Z,18.33
2023-01-05T21:29:19.182Z,18.88
2023-01-05T21:31:46.064Z,17.15
2023-01-05T21:34:13.078Z,14.30
2023-01-05T21:36:41.616Z,14.93
2023-01-05T21:39:08.628Z,18.30
2023-01-05T21:41:55.167Z,15.20
2023-01-05T21:44:21.665Z,13.27
2023-01-05T21:46:48.501Z,18.80
2023-01-05T21:49:15.330Z,14.80
2023-01-05T21:52:03.624Z,15.65
2023-01-05T21:54:52.949Z,17.80
2023-01-05T21:57:19.390Z,14.90
2023-01-05T21:59:58.495Z,16.90
2023-01-05T22:02:27.766Z,15.82
2023-01-05T22:05:00.262Z,15.25
2023-01-05T22:07:29.375Z,15.68
2023-01-05T22:09:58.084Z,16.40
2023-01-05T22:12:33.653Z,16.17
2023-01-05T22:15:00.107Z,13.32
2023-01-05T22:17:26.580Z,14.15
2023-01-05T22:20:01.185Z,17.55
2023-01-05T22:22:29.467Z,15.02
2023-01-05T22:25:02.906Z,14.30
2023-01-05T22:27:48.377Z,13.88
2023-01-05T22:30:24.055Z,16.92
2023-01-05T22:33:00.703Z,13.32
2023-01-05T22:35:30.341Z,15.10
2023-01-05T22:37:56.844Z,13.25
2023-01-05T22:40:40.792Z,16.17
2023-01-05T22:43:09.619Z,13.43
2023-01-05T22:45:36.198Z,13.32
2023-01-05T22:48:05.732Z,15.77
2023-01-05T22:50:34.003Z,15.23
2023-01-05T22:53:03.206Z,13.00
2023-01-05T22:55:29.876Z,12.32
2023-01-05T22:58:00.642Z,10.75
2023-01-05T23:00:40.306Z,11.38
2023-01-05T23:03:06.806Z,11.55
2023-01-05T23:05:37.069Z,9.82
2023-01-05T23:08:06.193Z,8.90
2023-01-05T23:10:37.367Z,8.85
2023-01-05T23:13:03.806Z,8.85
2023-01-05T23:15:32.512Z,8.55
2023-01-05T23:18:04.874Z,7.28
2023-01-05T23:23:14.511Z,5.93
2023-01-05T23:25:43.722Z,6.60
2023-01-05T23:28:13.512Z,5.15
2023-01-05T23:30:44.620Z,5.03
2023-01-05T23:33:14.897Z,4.35
2023-01-05T23:35:42.720Z,4.55
2023-01-05T23:38:12.180Z,4.20
2023-01-05T23:40:45.551Z,4.57
2023-01-05T23:43:18.464Z,4.90
2023-01-05T23:45:52.240Z,4.00
2023-01-05T23:48:20.762Z,4.13
2023-01-05T23:50:48.116Z,3.70
2023-01-05T23:53:20.046Z,3.63
2023-01-05T23:55:50.905Z,3.63
2023-01-05T23:58:21.411Z,4.03
